Time;durP1;ratioP1;P1;durP2;ratioP2;P2;SDS_P1;SDS_P2;PMS_P1;PMS_P2;Temp;Humidity;BMP_temperature;BMP_pressure;BME280_temperature;BME280_humidity;BME280_pressure;Samples;Min_cycle;Max_cycle;Signal;HPM_P1;HPM_P2
2023/11/07 00:00:41;;;;;;;4.32;0.80;;;;;;;10.57;100.00;99757.59;5145601;28;20058;-70
2023/11/07 00:03:11;;;;;;;5.82;0.80;;;;;;;10.58;100.00;99748.84;5145093;28;20149;-71
2023/11/07 00:05:42;;;;;;;2.75;0.68;;;;;;;10.61;100.00;99760.00;5145569;28;20090;-71
2023/11/07 00:08:12;;;;;;;1.73;0.50;;;;;;;10.67;100.00;99758.84;5147104;28;20054;-71
2023/11/07 00:10:42;;;;;;;6.43;0.98;;;;;;;10.72;99.95;99759.47;5145584;28;20105;-71
2023/11/07 00:13:13;;;;;;;4.03;0.90;;;;;;;10.74;99.92;99752.41;5147278;28;20433;-71
2023/11/07 00:15:43;;;;;;;6.35;0.60;;;;;;;10.78;99.39;99767.84;5144884;28;20172;-71
2023/11/07 00:18:13;;;;;;;3.88;0.47;;;;;;;10.76;100.00;99768.84;5146894;28;20038;-71
2023/11/07 00:20:43;;;;;;;2.53;0.43;;;;;;;10.70;100.00;99772.59;5144596;28;20038;-71
2023/11/07 00:23:14;;;;;;;4.22;0.40;;;;;;;10.69;100.00;99770.06;5146818;28;20027;-71
2023/11/07 00:25:44;;;;;;;2.13;0.65;;;;;;;10.79;100.00;99776.53;5145414;28;20510;-72
2023/11/07 00:28:15;;;;;;;4.25;0.57;;;;;;;10.77;100.00;99779.22;5146523;28;20034;-70
2023/11/07 00:30:46;;;;;;;1.67;0.43;;;;;;;10.70;100.00;99777.81;5145517;28;20435;-71
2023/11/07 00:33:16;;;;;;;3.88;0.70;;;;;;;10.74;100.00;99773.31;5148261;28;20528;-70
2023/11/07 00:35:46;;;;;;;3.17;0.68;;;;;;;10.72;100.00;99788.22;5144204;28;20446;-71
2023/11/07 00:38:16;;;;;;;2.05;0.60;;;;;;;10.73;100.00;99787.28;5146742;28;20066;-70
2023/11/07 00:40:48;;;;;;;1.55;0.30;;;;;;;10.87;99.89;99787.47;5145238;28;20030;-70
2023/11/07 00:43:18;;;;;;;6.13;0.93;;;;;;;10.89;99.25;99783.84;5146523;28;20023;-71
2023/11/07 00:45:49;;;;;;;2.92;0.80;;;;;;;10.86;99.76;99786.59;5144390;28;20377;-70
2023/11/07 00:48:19;;;;;;;2.95;0.70;;;;;;;10.85;99.08;99790.16;5144999;28;20046;-71
2023/11/07 00:50:49;;;;;;;3.60;1.23;;;;;;;10.87;98.75;99795.31;5140828;28;20022;-70
2023/11/07 00:53:20;;;;;;;4.85;0.60;;;;;;;10.77;99.86;99788.81;5145494;28;20709;-71
2023/11/07 00:55:50;;;;;;;1.95;0.50;;;;;;;10.72;100.00;99796.88;5140804;28;20479;-71
2023/11/07 00:58:21;;;;;;;2.90;0.40;;;;;;;10.78;99.39;99798.34;5141448;28;20030;-71
2023/11/07 01:00:51;;;;;;;1.45;0.50;;;;;;;10.72;100.00;99794.28;5140229;28;21856;-71
2023/11/07 01:03:21;;;;;;;1.52;0.45;;;;;;;10.69;99.89;99796.22;5142775;28;20030;-71
2023/11/07 01:05:52;;;;;;;1.73;0.40;;;;;;;10.72;99.72;99803.91;5140659;28;20912;-71
2023/11/07 01:08:22;;;;;;;2.10;0.60;;;;;;;10.64;100.00;99814.72;5142928;28;20026;-71
2023/11/07 01:10:53;;;;;;;3.83;0.80;;;;;;;10.62;100.00;99815.69;5139965;28;20488;-70
2023/11/07 01:13:24;;;;;;;2.20;0.50;;;;;;;10.67;100.00;99830.25;5142066;28;20080;-71
2023/11/07 01:15:54;;;;;;;2.17;0.60;;;;;;;10.65;100.00;99824.25;5138838;28;20039;-71
2023/11/07 01:18:25;;;;;;;3.08;0.50;;;;;;;10.65;100.00;99816.41;5140372;28;20061;-70
2023/11/07 01:20:57;;;;;;;1.60;0.52;;;;;;;10.58;100.00;99825.47;5141353;28;20034;-71
2023/11/07 01:23:27;;;;;;;2.80;0.60;;;;;;;10.62;100.00;99821.78;5142137;28;20097;-71
2023/11/07 01:26:02;;;;;;;2.95;0.55;;;;;;;10.60;100.00;99825.38;5142320;28;20031;-71
2023/11/07 01:28:32;;;;;;;3.17;0.50;;;;;;;10.57;100.00;99817.69;5231060;23;20446;-76
2023/11/07 01:31:03;;;;;;;1.85;0.50;;;;;;;10.67;100.00;99829.41;5200655;28;20037;-75
2023/11/07 01:33:34;;;;;;;2.22;0.47;;;;;;;10.71;100.00;99836.19;5190431;28;20500;-78
2023/11/07 01:36:05;;;;;;;2.50;0.50;;;;;;;10.71;100.00;99830.94;5197730;28;20034;-79
2023/11/07 01:38:36;;;;;;;3.17;0.68;;;;;;;10.68;100.00;99836.31;5203166;28;20142;-76
2023/11/07 01:41:06;;;;;;;1.73;0.57;;;;;;;10.72;100.00;99830.03;5203807;28;20091;-78
2023/11/07 01:43:38;;;;;;;1.80;0.50;;;;;;;10.73;98.94;99837.81;5200944;28;20023;-75
2023/11/07 01:46:09;;;;;;;1.88;0.45;;;;;;;10.68;99.79;99839.78;5203908;28;20469;-78
2023/11/07 01:48:40;;;;;;;3.75;0.52;;;;;;;10.56;100.00;99848.22;5202882;28;20482;-78
2023/11/07 01:51:12;;;;;;;2.40;0.70;;;;;;;10.52;100.00;99843.19;5206246;28;20083;-78
2023/11/07 01:53:43;;;;;;;1.15;0.60;;;;;;;10.52;100.00;99840.59;5200266;28;20485;-78
2023/11/07 01:56:14;;;;;;;3.05;0.47;;;;;;;10.51;100.00;99839.72;5205743;28;20294;-79
2023/11/07 01:58:44;;;;;;;4.05;0.57;;;;;;;10.55;100.00;99843.88;5206255;28;20140;-78
2023/11/07 02:01:15;;;;;;;2.15;0.57;;;;;;;10.59;100.00;99841.97;5211523;28;20120;-79
2023/11/07 02:03:45;;;;;;;1.33;0.40;;;;;;;10.52;100.00;99844.03;5211093;28;20021;-78
2023/11/07 02:06:16;;;;;;;1.35;0.50;;;;;;;10.49;100.00;99853.78;5214477;28;20033;-75
2023/11/07 02:08:47;;;;;;;2.90;0.60;;;;;;;10.63;100.00;99856.56;5206304;28;20505;-78
2023/11/07 02:11:17;;;;;;;2.42;0.63;;;;;;;10.57;100.00;99843.81;5221381;28;20036;-77
2023/11/07 02:13:48;;;;;;;1.75;0.50;;;;;;;10.45;100.00;99847.00;5207228;28;20032;-76
2023/11/07 02:16:18;;;;;;;1.23;0.60;;;;;;;10.44;100.00;99853.13;5206124;28;20026;-79
2023/11/07 02:18:49;;;;;;;4.38;0.50;;;;;;;10.42;100.00;99854.97;5209069;28;20026;-78
2023/11/07 02:21:19;;;;;;;2.55;0.57;;;;;;;10.45;100.00;99850.47;5210762;28;20041;-77
2023/11/07 02:23:49;;;;;;;2.50;0.45;;;;;;;10.39;100.00;99855.13;5206672;28;20063;-78
2023/11/07 02:26:20;;;;;;;3.92;0.70;;;;;;;10.42;100.00;99860.19;5208613;28;20283;-78
2023/11/07 02:28:50;;;;;;;0.80;0.45;;;;;;;10.32;100.00;99858.94;5205482;28;20083;-78
2023/11/07 02:31:20;;;;;;;2.72;0.52;;;;;;;10.41;100.00;99855.91;5214912;28;20041;-78
2023/11/07 02:33:50;;;;;;;2.38;0.47;;;;;;;10.45;100.00;99860.06;5205192;28;20033;-78
2023/11/07 02:36:21;;;;;;;1.70;0.68;;;;;;;10.44;100.00;99854.00;5209462;28;20033;-77
2023/11/07 02:38:51;;;;;;;2.70;0.60;;;;;;;10.39;100.00;99852.50;5206474;28;20496;-78
2023/11/07 02:41:21;;;;;;;3.80;0.60;;;;;;;10.38;100.00;99858.66;5207276;28;20444;-76
2023/11/07 02:43:52;;;;;;;2.15;0.50;;;;;;;10.40;100.00;99851.59;5210371;28;20022;-78
2023/11/07 02:46:22;;;;;;;2.75;0.75;;;;;;;10.41;100.00;99861.97;5209936;28;20428;-78
2023/11/07 02:48:52;;;;;;;1.98;0.50;;;;;;;10.35;100.00;99853.59;5208748;28;20040;-78
2023/11/07 02:51:23;;;;;;;4.75;1.02;;;;;;;10.30;100.00;99851.16;5207362;28;20486;-75
2023/11/07 02:53:53;;;;;;;3.28;0.75;;;;;;;10.30;100.00;99856.41;5205374;28;20033;-78
2023/11/07 02:56:27;;;;;;;1.85;0.68;;;;;;;10.25;100.00;99850.53;5207172;28;20040;-77
2023/11/07 02:58:59;;;;;;;5.00;0.60;;;;;;;10.34;100.00;99857.09;5210029;28;20017;-78
2023/11/07 03:01:31;;;;;;;5.00;0.70;;;;;;;10.28;100.00;99859.97;5207011;28;20501;-78
2023/11/07 03:04:01;;;;;;;3.25;0.60;;;;;;;10.24;100.00;99855.81;5203729;28;20036;-78
2023/11/07 03:06:31;;;;;;;1.83;0.70;;;;;;;10.31;100.00;99854.66;5207120;28;20037;-78
2023/11/07 03:09:02;;;;;;;2.92;0.60;;;;;;;10.28;100.00;99855.63;5207043;28;20064;-78
2023/11/07 03:11:32;;;;;;;4.15;0.77;;;;;;;10.31;100.00;99854.66;5202781;28;20555;-78
2023/11/07 03:14:03;;;;;;;2.53;0.47;;;;;;;10.27;100.00;99856.53;5205647;28;20025;-77
2023/11/07 03:16:35;;;;;;;3.55;0.68;;;;;;;10.19;100.00;99849.97;5206256;28;20395;-77
2023/11/07 03:19:07;;;;;;;1.73;0.50;;;;;;;10.19;100.00;99852.59;5206077;28;23508;-78
2023/11/07 03:21:39;;;;;;;2.88;0.80;;;;;;;10.23;100.00;99855.00;5206995;28;20029;-78
2023/11/07 03:24:10;;;;;;;3.80;0.80;;;;;;;10.14;100.00;99851.97;5208364;28;20021;-78
2023/11/07 03:26:40;;;;;;;2.03;0.68;;;;;;;10.19;100.00;99852.59;5207141;28;20031;-78
2023/11/07 03:29:10;;;;;;;1.38;0.60;;;;;;;10.04;100.00;99866.31;5206282;28;20025;-78
2023/11/07 03:31:43;;;;;;;4.28;0.82;;;;;;;9.98;100.00;99858.75;5205061;28;20186;-78
2023/11/07 03:34:13;;;;;;;3.35;0.70;;;;;;;10.03;100.00;99867.25;5204320;28;20096;-77
2023/11/07 03:36:43;;;;;;;1.95;0.55;;;;;;;10.09;100.00;99856.50;5202907;28;20115;-78
2023/11/07 03:39:14;;;;;;;4.70;0.75;;;;;;;10.11;100.00;99865.13;5206505;28;20021;-76
2023/11/07 03:41:46;;;;;;;2.88;0.65;;;;;;;9.95;100.00;99864.94;5204517;28;20403;-78
2023/11/07 03:44:16;;;;;;;2.95;0.63;;;;;;;9.91;100.00;99873.81;5205259;28;20083;-78
2023/11/07 03:46:46;;;;;;;2.58;0.50;;;;;;;9.93;100.00;99866.78;5209237;28;20024;-78
2023/11/07 03:49:17;;;;;;;2.13;0.60;;;;;;;10.01;100.00;99866.44;5208086;28;20128;-75
2023/11/07 03:51:47;;;;;;;2.10;0.60;;;;;;;9.96;100.00;99876.25;5208678;28;20108;-75
2023/11/07 03:54:18;;;;;;;5.15;1.13;;;;;;;10.01;100.00;99875.13;5202937;28;20510;-76
2023/11/07 03:56:48;;;;;;;1.98;0.60;;;;;;;9.99;100.00;99881.31;5204980;28;20564;-78
2023/11/07 03:59:19;;;;;;;2.20;0.80;;;;;;;10.01;100.00;99879.47;5206305;28;20389;-77
2023/11/07 04:01:51;;;;;;;2.78;0.60;;;;;;;10.03;100.00;99882.91;5203624;28;20021;-78
2023/11/07 04:04:22;;;;;;;7.18;0.98;;;;;;;10.05;100.00;99887.16;5208596;28;20205;-78
2023/11/07 04:06:52;;;;;;;2.40;0.70;;;;;;;10.03;100.00;99888.13;5204317;28;20033;-77
2023/11/07 04:09:22;;;;;;;2.97;0.80;;;;;;;10.04;100.00;99888.06;5208917;28;20270;-78
2023/11/07 04:11:53;;;;;;;2.65;0.50;;;;;;;10.08;100.00;99881.78;5202790;28;20394;-76
2023/11/07 04:14:23;;;;;;;3.60;0.52;;;;;;;9.97;100.00;99883.16;5208413;28;20021;-78
2023/11/07 04:16:53;;;;;;;2.92;0.50;;;;;;;9.99;100.00;99884.75;5201272;28;20029;-77
2023/11/07 04:19:24;;;;;;;2.35;0.50;;;;;;;9.94;100.00;99885.88;5207587;28;20029;-74
2023/11/07 04:21:54;;;;;;;5.68;0.50;;;;;;;9.87;100.00;99880.09;5204407;28;20083;-78
2023/11/07 04:24:25;;;;;;;4.63;0.77;;;;;;;9.78;100.00;99880.50;5204206;28;20021;-74
2023/11/07 04:26:55;;;;;;;3.33;0.65;;;;;;;9.79;100.00;99876.13;5203362;28;20029;-77
2023/11/07 04:29:26;;;;;;;2.60;0.40;;;;;;;9.64;100.00;99877.63;5204657;28;20104;-77
2023/11/07 04:31:56;;;;;;;2.85;0.55;;;;;;;9.56;100.00;99877.13;5205285;28;20044;-77
2023/11/07 04:34:27;;;;;;;2.08;0.65;;;;;;;9.44;100.00;99871.53;5203960;28;20440;-77
2023/11/07 04:36:58;;;;;;;3.97;0.40;;;;;;;9.37;100.00;99876.19;5205206;28;20053;-77
2023/11/07 04:39:29;;;;;;;1.38;0.50;;;;;;;9.36;100.00;99881.47;5207446;28;20058;-78
2023/11/07 04:41:59;;;;;;;2.17;0.90;;;;;;;9.38;100.00;99877.03;5204854;28;20033;-77
2023/11/07 04:44:31;;;;;;;3.53;0.70;;;;;;;9.50;100.00;99894.78;5209184;28;20021;-78
2023/11/07 04:47:02;;;;;;;2.03;0.55;;;;;;;9.50;100.00;99894.78;5207638;28;20043;-77
2023/11/07 04:49:33;;;;;;;4.75;0.60;;;;;;;9.39;100.00;99891.75;5207411;28;20470;-78
2023/11/07 04:52:04;;;;;;;6.55;0.70;;;;;;;9.33;100.00;99894.63;5206608;28;20035;-77
2023/11/07 04:54:35;;;;;;;2.35;0.43;;;;;;;9.34;100.00;99886.72;5201043;28;20029;-76
2023/11/07 04:57:06;;;;;;;3.35;0.50;;;;;;;9.37;100.00;99898.81;5204646;28;20586;-78
2023/11/07 04:59:36;;;;;;;3.83;0.57;;;;;;;9.27;100.00;99900.09;5208512;28;20108;-78
2023/11/07 05:02:07;;;;;;;2.70;0.60;;;;;;;9.30;100.00;99899.97;5202359;28;20473;-78
2023/11/07 05:04:37;;;;;;;1.95;0.60;;;;;;;9.27;100.00;99900.94;5206198;28;20033;-77
2023/11/07 05:07:08;;;;;;;2.05;0.60;;;;;;;9.23;100.00;99899.38;5206314;28;20040;-77
2023/11/07 05:09:38;;;;;;;4.47;0.77;;;;;;;9.32;100.00;99898.97;5206591;28;20040;-77
2023/11/07 05:12:08;;;;;;;2.20;0.63;;;;;;;9.16;100.00;99907.50;5199412;28;20107;-78
2023/11/07 05:14:39;;;;;;;5.00;0.80;;;;;;;9.19;100.00;99897.81;5208369;28;20112;-78
2023/11/07 05:17:09;;;;;;;4.65;0.70;;;;;;;9.17;100.00;99906.59;5202764;28;20032;-79
2023/11/07 05:19:39;;;;;;;3.13;0.82;;;;;;;9.23;100.00;99898.53;5206129;28;20041;-76
2023/11/07 05:22:09;;;;;;;12.63;1.90;;;;;;;9.23;100.00;99898.53;5209718;28;20433;-77
2023/11/07 05:24:40;;;;;;;7.30;3.45;;;;;;;9.16;100.00;99902.31;5205264;28;20018;-77
2023/11/07 05:27:10;;;;;;;2.67;1.00;;;;;;;9.07;100.00;99894.84;5202383;28;20029;-77
2023/11/07 05:29:40;;;;;;;3.17;0.52;;;;;;;9.07;100.00;99892.22;5205294;28;20025;-78
2023/11/07 05:32:11;;;;;;;1.67;0.40;;;;;;;9.06;100.00;99900.13;5202764;28;20037;-77
2023/11/07 05:34:42;;;;;;;4.38;0.70;;;;;;;9.08;100.00;99908.72;5207851;28;20605;-77
2023/11/07 05:37:14;;;;;;;3.10;0.70;;;;;;;9.07;100.00;99907.88;5204414;28;20394;-77
2023/11/07 05:39:44;;;;;;;4.32;0.70;;;;;;;9.11;100.00;99909.47;5201501;28;20041;-77
2023/11/07 05:42:15;;;;;;;4.25;0.60;;;;;;;9.13;100.00;99912.00;5203124;28;20498;-77
2023/11/07 05:44:45;;;;;;;2.53;0.45;;;;;;;9.11;100.00;99909.47;5199819;28;20083;-78
2023/11/07 05:47:16;;;;;;;6.28;0.80;;;;;;;9.19;100.00;99910.00;5205707;28;20044;-78
2023/11/07 05:49:46;;;;;;;2.10;0.60;;;;;;;9.20;100.00;99916.91;5204277;28;20114;-78
2023/11/07 05:52:16;;;;;;;1.40;0.47;;;;;;;9.17;100.00;99917.03;5202574;28;20163;-77
2023/11/07 05:54:47;;;;;;;1.05;0.40;;;;;;;9.23;100.00;99925.44;5205206;28;20118;-77
2023/11/07 05:57:19;;;;;;;2.67;0.50;;;;;;;9.23;100.00;99929.81;5211211;28;20122;-78
2023/11/07 05:59:49;;;;;;;3.50;0.70;;;;;;;9.24;100.00;99923.69;5202895;28;20390;-78
2023/11/07 06:02:20;;;;;;;3.13;0.60;;;;;;;9.25;100.00;99923.63;5203347;28;20025;-76
2023/11/07 06:04:53;;;;;;;3.35;0.55;;;;;;;9.18;100.00;99918.72;5206245;28;20032;-78
2023/11/07 06:07:24;;;;;;;1.23;0.50;;;;;;;9.25;100.00;99923.63;5202724;28;20299;-78
2023/11/07 06:09:54;;;;;;;2.90;0.98;;;;;;;9.28;100.00;99913.06;5205692;28;20048;-78
2023/11/07 06:12:24;;;;;;;2.17;0.43;;;;;;;9.34;100.00;99922.41;5198644;28;20235;-74
2023/11/07 06:14:55;;;;;;;2.42;0.80;;;;;;;9.31;100.00;99917.31;5202197;28;20028;-77
2023/11/07 06:17:25;;;;;;;3.22;0.70;;;;;;;9.30;100.00;99921.66;5201618;28;20091;-77
2023/11/07 06:19:55;;;;;;;2.40;0.68;;;;;;;9.36;100.00;99931.00;5203719;28;20487;-78
2023/11/07 06:22:26;;;;;;;1.85;0.50;;;;;;;9.38;100.00;99922.22;5196888;28;20079;-77
2023/11/07 06:24:56;;;;;;;2.15;0.52;;;;;;;9.47;100.00;99934.03;5200548;28;20036;-77
2023/11/07 06:27:27;;;;;;;5.32;0.88;;;;;;;9.47;100.00;99939.25;5197682;28;20025;-78
2023/11/07 06:29:58;;;;;;;2.30;0.60;;;;;;;9.45;100.00;99941.06;5201989;28;20386;-77
2023/11/07 06:32:28;;;;;;;3.15;0.77;;;;;;;9.51;100.00;99943.41;5195908;28;20450;-78
2023/11/07 06:34:59;;;;;;;4.15;0.90;;;;;;;9.47;100.00;99952.28;5201166;28;20037;-77
2023/11/07 06:37:33;;;;;;;1.77;0.50;;;;;;;9.44;100.00;99948.03;5197230;28;20394;-77
2023/11/07 06:40:07;;;;;;;1.20;0.50;;;;;;;9.48;100.00;99954.81;5195299;28;20112;-78
2023/11/07 06:42:37;;;;;;;3.25;1.05;;;;;;;9.57;100.00;99950.97;5200645;28;20025;-78
2023/11/07 06:45:12;;;;;;;4.00;0.52;;;;;;;9.53;100.00;99949.41;5203547;28;20036;-77
2023/11/07 06:47:44;;;;;;;3.28;1.42;;;;;;;9.49;100.00;99950.47;5203589;28;20033;-78
2023/11/07 06:50:15;;;;;;;3.65;0.90;;;;;;;9.51;100.00;99956.47;5203265;28;20293;-78
2023/11/07 06:52:51;;;;;;;2.35;0.90;;;;;;;9.56;100.00;99944.94;5204356;28;20028;-77
2023/11/07 06:55:24;;;;;;;3.45;0.80;;;;;;;9.61;100.00;99953.41;5205755;28;20037;-77
2023/11/07 06:57:55;;;;;;;2.08;0.70;;;;;;;9.68;100.00;99951.41;5204094;28;20719;-78
2023/11/07 07:00:25;;;;;;;1.85;0.50;;;;;;;9.69;100.00;99951.31;5206172;28;20114;-76
2023/11/07 07:02:55;;;;;;;1.27;0.60;;;;;;;9.75;100.00;99945.84;5206442;28;20536;-78
2023/11/07 07:05:26;;;;;;;2.90;0.50;;;;;;;9.78;100.00;99955.28;5207349;28;20032;-77
2023/11/07 07:07:56;;;;;;;1.23;0.60;;;;;;;9.80;100.00;99958.72;5208084;28;20029;-77
2023/11/07 07:10:27;;;;;;;3.22;0.82;;;;;;;9.78;100.00;99960.50;5205173;28;20037;-78
2023/11/07 07:12:57;;;;;;;2.47;0.60;;;;;;;9.88;100.00;99961.84;5206398;28;20033;-78
2023/11/07 07:15:27;;;;;;;1.77;0.70;;;;;;;9.97;100.00;99961.47;5207822;28;20101;-78
2023/11/07 07:18:04;;;;;;;2.45;0.60;;;;;;;9.97;100.00;99966.69;5206683;28;20051;-78
2023/11/07 07:20:37;;;;;;;4.10;0.80;;;;;;;9.96;100.00;99972.81;5203445;28;20538;-78
2023/11/07 07:23:08;;;;;;;3.50;0.98;;;;;;;9.96;100.00;99970.22;5201429;28;20088;-77
2023/11/07 07:25:39;;;;;;;3.85;0.70;;;;;;;10.01;100.00;99971.72;5201309;28;20032;-78
2023/11/07 07:28:09;;;;;;;3.40;0.95;;;;;;;10.13;100.00;99973.81;5207137;28;20418;-74
2023/11/07 07:30:39;;;;;;;4.10;0.90;;;;;;;10.14;100.00;99969.44;5304598;22;20052;-71
2023/11/07 07:33:10;;;;;;;2.40;0.70;;;;;;;10.26;100.00;99968.88;5156242;28;20030;-71
2023/11/07 07:35:40;;;;;;;2.22;0.80;;;;;;;10.23;100.00;99971.63;5158863;28;20109;-71
2023/11/07 07:38:11;;;;;;;3.40;0.75;;;;;;;10.32;100.00;99974.69;5159046;28;20022;-70
2023/11/07 07:40:42;;;;;;;4.20;0.80;;;;;;;10.40;100.00;99974.34;5167532;28;20046;-71
2023/11/07 07:43:12;;;;;;;1.85;0.60;;;;;;;10.61;100.00;99971.63;5172088;28;20017;-70
2023/11/07 07:45:42;;;;;;;3.40;0.70;;;;;;;10.85;100.00;99980.97;5171489;28;20041;-70
2023/11/07 07:48:13;;;;;;;2.40;0.60;;;;;;;10.99;100.00;99986.41;5173308;28;20112;-70
2023/11/07 07:50:46;;;;;;;1.75;0.70;;;;;;;11.53;100.00;99981.16;5166874;28;20124;-71
2023/11/07 07:53:20;;;;;;;4.88;0.70;;;;;;;11.80;95.37;99987.69;5165644;28;20027;-71
2023/11/07 07:55:51;;;;;;;4.90;0.70;;;;;;;12.66;93.13;99982.25;5166162;28;20641;-70
2023/11/07 07:58:22;;;;;;;4.50;0.85;;;;;;;13.07;89.07;99986.13;5166706;28;20096;-70
2023/11/07 08:00:52;;;;;;;2.75;0.85;;;;;;;12.77;87.18;99987.75;5164731;28;20034;-71
2023/11/07 08:03:22;;;;;;;2.28;0.50;;;;;;;12.69;88.66;100003.06;5164456;28;20021;-71
2023/11/07 08:05:53;;;;;;;2.35;0.55;;;;;;;12.16;89.72;100005.00;5169472;28;20041;-71
2023/11/07 08:08:23;;;;;;;5.50;0.80;;;;;;;13.37;87.99;99997.56;5167856;28;20021;-71
2023/11/07 08:10:57;;;;;;;2.10;0.50;;;;;;;14.87;83.48;99984.94;5167817;28;20495;-71
2023/11/07 08:13:28;;;;;;;1.85;0.55;;;;;;;14.44;81.34;99987.69;5165935;28;20111;-71
2023/11/07 08:15:59;;;;;;;1.83;0.50;;;;;;;15.01;78.13;99979.66;5168191;28;20021;-71
2023/11/07 08:18:29;;;;;;;3.38;0.60;;;;;;;14.30;79.93;99997.34;5166560;28;20036;-71
2023/11/07 08:20:59;;;;;;;3.78;1.05;;;;;;;13.99;81.60;100000.91;5166911;28;20026;-71
2023/11/07 08:23:30;;;;;;;2.80;0.63;;;;;;;15.43;78.10;99990.16;5170188;28;20025;-71
2023/11/07 08:26:01;;;;;;;2.97;0.50;;;;;;;15.35;76.80;99989.78;5172078;28;20032;-71
2023/11/07 08:28:31;;;;;;;2.67;0.50;;;;;;;16.37;73.52;99982.91;5165309;28;20479;-71
2023/11/07 08:31:03;;;;;;;2.00;0.60;;;;;;;17.26;72.09;99980.88;5170596;28;20037;-71
2023/11/07 08:33:37;;;;;;;2.20;0.45;;;;;;;15.63;73.75;99991.47;5168013;28;20034;-71
2023/11/07 08:36:09;;;;;;;2.75;0.70;;;;;;;14.10;80.27;99992.41;5167492;28;20034;-71
2023/11/07 08:38:40;;;;;;;2.78;0.50;;;;;;;13.87;82.12;100006.00;5164969;28;20030;-71
2023/11/07 08:41:11;;;;;;;3.30;0.52;;;;;;;13.77;82.30;100000.44;5166091;28;20045;-71
2023/11/07 08:43:42;;;;;;;2.92;0.40;;;;;;;13.79;82.33;100003.00;5163934;28;20034;-71
2023/11/07 08:46:18;;;;;;;1.67;0.47;;;;;;;13.40;84.10;100015.78;5165460;28;20034;-71
2023/11/07 08:48:50;;;;;;;3.30;0.60;;;;;;;13.47;85.18;100001.34;5164117;28;20030;-71
2023/11/07 08:51:21;;;;;;;4.38;0.60;;;;;;;13.69;84.45;100017.56;5164202;28;20406;-71
2023/11/07 08:53:51;;;;;;;1.92;0.50;;;;;;;13.70;85.12;100019.25;5162985;28;20030;-71
2023/11/07 08:56:24;;;;;;;0.73;0.30;;;;;;;13.46;86.45;100024.16;5163795;28;20419;-70
2023/11/07 08:58:55;;;;;;;3.28;0.63;;;;;;;13.47;86.93;100014.47;5164882;28;20153;-71
2023/11/07 09:01:25;;;;;;;2.58;0.55;;;;;;;13.19;87.03;100022.19;5163363;28;20120;-70
2023/11/07 09:03:55;;;;;;;2.67;0.70;;;;;;;13.02;88.26;100024.88;5163664;28;20508;-71
2023/11/07 09:06:26;;;;;;;2.13;0.50;;;;;;;12.91;88.56;100027.22;5164206;28;20029;-70
2023/11/07 09:08:56;;;;;;;3.83;0.60;;;;;;;12.80;89.33;100029.56;5164163;28;20109;-71
2023/11/07 09:11:26;;;;;;;0.52;0.28;;;;;;;12.78;89.24;100031.41;5164313;28;20029;-71
2023/11/07 09:13:57;;;;;;;2.78;0.40;;;;;;;12.96;89.37;100030.47;5162637;28;20022;-71
2023/11/07 09:16:27;;;;;;;1.15;0.50;;;;;;;13.10;88.83;100030.56;5163161;28;20084;-71
2023/11/07 09:18:58;;;;;;;3.72;0.60;;;;;;;13.22;88.69;100022.03;5165040;28;20332;-71
2023/11/07 09:21:28;;;;;;;1.30;0.43;;;;;;;13.20;89.36;100029.97;5164273;28;20072;-71
2023/11/07 09:23:59;;;;;;;2.63;0.60;;;;;;;13.09;88.16;100031.50;5163640;28;20049;-71
2023/11/07 09:26:29;;;;;;;3.33;0.68;;;;;;;13.13;88.19;100025.16;5164512;28;20036;-71
2023/11/07 09:28:59;;;;;;;4.28;0.90;;;;;;;13.37;88.07;100021.19;5158670;28;20069;-71
2023/11/07 09:31:29;;;;;;;2.40;0.50;;;;;;;13.49;85.83;100025.72;5165000;28;20022;-71
2023/11/07 09:34:00;;;;;;;3.10;0.50;;;;;;;13.68;85.80;100023.75;5163704;28;20263;-71
2023/11/07 09:36:30;;;;;;;3.53;0.98;;;;;;;13.66;85.74;100029.13;5164609;28;20033;-71
2023/11/07 09:39:01;;;;;;;3.03;0.55;;;;;;;13.81;85.05;100037.91;5163146;28;20049;-71
2023/11/07 09:41:32;;;;;;;1.77;0.47;;;;;;;13.80;85.33;100036.19;5161059;28;20030;-71
2023/11/07 09:44:03;;;;;;;1.77;0.55;;;;;;;13.78;84.99;100043.31;5163313;28;20057;-71
2023/11/07 09:46:34;;;;;;;6.93;0.80;;;;;;;13.93;85.44;100038.03;5164893;28;20036;-71
2023/11/07 09:49:07;;;;;;;3.40;0.57;;;;;;;13.81;85.38;100040.53;5165567;28;20034;-71
2023/11/07 09:51:39;;;;;;;1.33;0.40;;;;;;;13.84;85.46;100040.34;5164840;28;20502;-71
2023/11/07 09:54:12;;;;;;;2.47;0.60;;;;;;;13.77;85.58;100031.97;5166261;28;20032;-71
2023/11/07 09:56:44;;;;;;;1.23;0.30;;;;;;;13.89;85.23;100035.69;5164129;28;20053;-70
2023/11/07 09:59:35;;;;;;;4.43;0.60;;;;;;;13.83;84.62;100030.78;5165743;28;20487;-70
2023/11/07 10:02:07;;;;;;;2.55;0.57;;;;;;;13.68;83.29;100027.25;5159543;28;20129;-70
2023/11/07 10:04:39;;;;;;;2.25;0.82;;;;;;;14.12;84.39;100027.31;5165331;28;20518;-70
2023/11/07 10:07:09;;;;;;;2.50;0.52;;;;;;;14.02;83.68;100026.13;5164480;28;20049;-70
2023/11/07 10:09:40;;;;;;;2.17;0.60;;;;;;;13.97;83.18;100018.56;5165786;28;20388;-71
2023/11/07 10:12:18;;;;;;;1.48;0.50;;;;;;;13.86;83.09;100030.59;5166949;28;20233;-70
2023/11/07 10:14:48;;;;;;;3.38;0.45;;;;;;;14.03;83.04;100027.84;5167344;28;20033;-70
2023/11/07 10:17:20;;;;;;;1.52;0.30;;;;;;;14.25;83.68;100023.06;5168640;28;20030;-72
2023/11/07 10:20:04;;;;;;;2.22;0.50;;;;;;;14.41;82.68;100018.59;5170537;28;20037;-71
2023/11/07 10:22:45;;;;;;;1.17;0.40;;;;;;;14.57;82.41;100014.09;5166836;28;20033;-71
2023/11/07 10:25:29;;;;;;;1.60;0.65;;;;;;;14.37;82.46;100017.06;5172918;28;20365;-72
2023/11/07 10:28:01;;;;;;;3.67;0.65;;;;;;;14.59;81.89;100010.41;5168904;28;20029;-71
2023/11/07 10:30:35;;;;;;;1.85;0.50;;;;;;;14.38;81.84;100016.13;5171802;28;20034;-72
2023/11/07 10:33:10;;;;;;;0.70;0.30;;;;;;;14.51;81.97;100015.31;5172720;28;20080;-71
2023/11/07 10:35:55;;;;;;;1.92;0.65;;;;;;;14.31;82.19;100020.06;5171271;28;20038;-71
2023/11/07 10:38:26;;;;;;;1.45;0.40;;;;;;;14.10;83.60;100019.50;5171551;28;20468;-71
2023/11/07 10:40:57;;;;;;;1.45;0.50;;;;;;;13.94;83.08;100015.25;5171353;28;20453;-72
2023/11/07 10:43:35;;;;;;;2.08;0.70;;;;;;;13.89;83.73;100025.19;5172182;28;20022;-71
2023/11/07 10:46:08;;;;;;;2.60;0.70;;;;;;;13.81;83.64;100022.13;5171109;28;20041;-71
2023/11/07 10:48:40;;;;;;;1.77;0.50;;;;;;;13.78;84.23;100023.16;5171977;28;20502;-71
2023/11/07 10:51:12;;;;;;;1.85;0.60;;;;;;;13.97;84.36;100017.69;5171930;28;20404;-71
2023/11/07 10:53:42;;;;;;;2.78;0.60;;;;;;;14.00;83.80;100009.63;5172436;28;20034;-72
2023/11/07 10:56:16;;;;;;;2.08;0.60;;;;;;;13.99;84.36;100015.81;5173251;28;20095;-71
2023/11/07 10:59:02;;;;;;;1.63;0.32;;;;;;;13.91;83.52;100012.81;5171437;28;20022;-71
2023/11/07 11:01:36;;;;;;;2.60;0.60;;;;;;;13.50;83.91;100004.66;5170968;28;20026;-71
2023/11/07 11:04:08;;;;;;;0.73;0.35;;;;;;;13.43;84.72;99998.03;5172656;28;20061;-71
2023/11/07 11:06:48;;;;;;;3.22;0.57;;;;;;;13.18;85.25;99996.88;5169640;28;20029;-71
2023/11/07 11:09:20;;;;;;;1.58;0.60;;;;;;;13.02;85.62;100006.50;5171085;28;20424;-71
2023/11/07 11:11:53;;;;;;;2.30;0.40;;;;;;;12.86;87.04;100013.50;5168775;28;20030;-72
2023/11/07 11:14:25;;;;;;;2.70;0.50;;;;;;;12.91;87.46;100014.94;5172485;28;20360;-71
2023/11/07 11:17:00;;;;;;;2.00;0.47;;;;;;;12.85;87.85;100016.19;5170600;28;20073;-71
2023/11/07 11:19:58;;;;;;;0.98;0.43;;;;;;;12.85;87.95;100017.03;5172322;28;20030;-71
2023/11/07 11:22:37;;;;;;;1.77;0.40;;;;;;;12.93;87.26;100029.78;5170108;28;20033;-71
2023/11/07 11:25:26;;;;;;;1.17;0.43;;;;;;;13.05;87.59;100019.50;5173033;28;20045;-71
2023/11/07 11:28:01;;;;;;;0.73;0.40;;;;;;;13.03;87.00;100016.09;5168797;28;20481;-71
2023/11/07 11:30:32;;;;;;;3.75;0.52;;;;;;;13.13;87.74;100022.53;5166676;28;20518;-71
2023/11/07 11:33:12;;;;;;;1.38;0.40;;;;;;;13.14;87.79;100014.59;5171263;28;20038;-76
2023/11/07 11:35:44;;;;;;;0.52;0.30;;;;;;;13.20;86.86;100016.03;5166490;28;20422;-70
2023/11/07 11:38:16;;;;;;;0.73;0.32;;;;;;;13.05;86.89;100022.09;5168136;28;20062;-70
2023/11/07 11:40:57;;;;;;;1.55;0.40;;;;;;;12.85;88.55;100017.03;5166643;28;20037;-70
2023/11/07 11:43:31;;;;;;;0.82;0.43;;;;;;;12.75;89.48;100010.59;5164999;28;20171;-70
2023/11/07 11:46:11;;;;;;;1.60;0.47;;;;;;;12.96;89.17;100009.47;5166475;28;20321;-70
2023/11/07 11:48:55;;;;;;;2.47;0.57;;;;;;;13.03;89.39;100005.63;5165040;28;20087;-70